createdAt,value
2023-05-10T00:00:36.663Z,21.40
2023-05-10T00:02:37.865Z,23.00
2023-05-10T00:04:30.950Z,18.40
2023-05-10T00:06:38.517Z,21.10
2023-05-10T00:08:33.051Z,21.00
2023-05-10T00:10:26.384Z,21.50
2023-05-10T00:12:19.544Z,21.10
2023-05-10T00:14:12.904Z,20.50
2023-05-10T00:16:06.639Z,24.20
2023-05-10T00:18:00.476Z,23.20
2023-05-10T00:19:53.890Z,19.90
2023-05-10T00:21:46.706Z,20.90
2023-05-10T00:23:39.581Z,21.60
2023-05-10T00:25:32.426Z,21.50
2023-05-10T00:27:25.424Z,21.80
2023-05-10T00:29:18.322Z,19.30
2023-05-10T00:31:11.275Z,23.60
2023-05-10T00:33:04.300Z,21.80
2023-05-10T00:34:57.378Z,18.40
2023-05-10T00:36:50.218Z,21.30
2023-05-10T00:38:43.066Z,20.00
2023-05-10T00:40:38.079Z,19.10
2023-05-10T00:42:32.445Z,20.30
2023-05-10T00:44:25.491Z,18.60
2023-05-10T00:46:18.803Z,23.40
2023-05-10T00:48:12.006Z,18.50
2023-05-10T00:50:06.494Z,19.60
2023-05-10T00:51:59.542Z,24.90
2023-05-10T00:53:52.739Z,21.40
2023-05-10T00:55:45.953Z,18.60
2023-05-10T00:57:39.620Z,20.40
2023-05-10T00:59:33.283Z,21.80
2023-05-10T01:01:26.573Z,19.10
2023-05-10T01:03:19.567Z,16.80
2023-05-10T01:05:13.273Z,21.50
2023-05-10T01:07:06.608Z,18.30
2023-05-10T01:08:59.460Z,17.60
2023-05-10T01:10:53.623Z,18.50
2023-05-10T01:12:48.526Z,20.30
2023-05-10T01:14:41.787Z,19.70
2023-05-10T01:16:43.274Z,18.60
2023-05-10T01:18:39.283Z,19.40
2023-05-10T01:20:39.307Z,18.20
2023-05-10T01:22:58.666Z,18.50
2023-05-10T01:25:09.811Z,18.80
2023-05-10T01:27:22.415Z,16.40
2023-05-10T01:29:26.422Z,15.60
2023-05-10T01:31:28.628Z,16.40
2023-05-10T01:33:42.776Z,18.70
2023-05-10T01:35:46.643Z,18.90
2023-05-10T01:37:58.125Z,18.10
2023-05-10T01:40:09.292Z,17.20
2023-05-10T01:42:05.622Z,18.80
2023-05-10T01:44:19.776Z,17.10
2023-05-10T01:46:18.919Z,18.00
2023-05-10T01:48:15.143Z,16.70
2023-05-10T01:50:16.345Z,17.10
2023-05-10T01:52:13.586Z,17.60
2023-05-10T01:54:08.259Z,14.60
2023-05-10T01:56:03.870Z,17.60
2023-05-10T01:58:10.867Z,18.30
2023-05-10T02:00:05.626Z,23.80
2023-05-10T02:02:09.212Z,16.80
2023-05-10T02:04:04.409Z,18.50
2023-05-10T02:05:58.511Z,16.90
2023-05-10T02:07:53.099Z,16.40
2023-05-10T02:09:50.039Z,19.60
2023-05-10T02:11:45.244Z,18.40
2023-05-10T02:13:40.545Z,17.40
2023-05-10T02:15:35.238Z,17.80
2023-05-10T02:17:29.810Z,19.30
2023-05-10T02:19:24.211Z,17.50
2023-05-10T02:21:19.100Z,18.70
2023-05-10T02:23:12.767Z,18.40
2023-05-10T02:25:07.908Z,18.40
2023-05-10T02:27:02.939Z,16.20
2023-05-10T02:28:58.277Z,18.20
2023-05-10T02:30:53.096Z,18.50
2023-05-10T02:32:47.549Z,18.10
2023-05-10T02:34:41.726Z,17.70
2023-05-10T02:36:35.385Z,18.30
2023-05-10T02:38:29.269Z,17.50
2023-05-10T02:40:26.807Z,17.90
2023-05-10T02:42:26.211Z,17.30
2023-05-10T02:44:21.943Z,18.50
2023-05-10T02:46:14.896Z,16.30
2023-05-10T02:48:08.094Z,15.30
2023-05-10T02:50:01.480Z,16.70
2023-05-10T02:52:00.266Z,16.60
2023-05-10T02:53:56.296Z,16.70
2023-05-10T02:55:53.722Z,19.50
2023-05-10T02:57:59.800Z,16.40
2023-05-10T02:59:52.951Z,16.70
2023-05-10T03:01:45.846Z,19.80
2023-05-10T03:03:39.474Z,16.10
2023-05-10T03:05:32.639Z,16.50
2023-05-10T03:07:27.605Z,16.90
2023-05-10T03:09:22.203Z,13.90
2023-05-10T03:11:40.132Z,16.90
2023-05-10T03:13:44.959Z,15.50
2023-05-10T03:15:52.193Z,16.20
2023-05-10T03:18:03.407Z,16.50
2023-05-10T03:19:59.438Z,19.20
2023-05-10T03:21:55.091Z,17.50
2023-05-10T03:23:57.724Z,16.90
2023-05-10T03:25:51.830Z,16.60
2023-05-10T03:27:46.281Z,18.10
2023-05-10T03:29:40.676Z,16.50
2023-05-10T03:31:33.940Z,16.00
2023-05-10T03:33:27.176Z,15.60
2023-05-10T03:35:20.226Z,16.40
2023-05-10T03:37:13.074Z,19.10
2023-05-10T03:39:06.024Z,17.40
2023-05-10T03:40:59.622Z,17.40
2023-05-10T03:42:52.528Z,19.80
2023-05-10T03:44:45.386Z,16.70
2023-05-10T03:46:38.373Z,20.30
2023-05-10T03:48:31.783Z,17.80
2023-05-10T03:50:25.041Z,17.30
2023-05-10T03:52:17.991Z,19.00
2023-05-10T03:54:11.353Z,17.60
2023-05-10T03:56:04.397Z,20.30
2023-05-10T03:57:57.443Z,16.90
2023-05-10T03:59:51.372Z,18.70
2023-05-10T04:01:44.275Z,16.40
2023-05-10T04:03:37.837Z,16.20
2023-05-10T04:05:31.566Z,15.80
2023-05-10T04:07:24.450Z,16.90
2023-05-10T04:09:18.220Z,16.40
2023-05-10T04:11:12.795Z,16.50
2023-05-10T04:13:05.718Z,18.50
2023-05-10T04:14:58.695Z,17.10
2023-05-10T04:16:51.726Z,16.90
2023-05-10T04:18:44.588Z,17.90
2023-05-10T04:20:37.659Z,18.90
2023-05-10T04:22:30.597Z,15.90
2023-05-10T04:24:23.438Z,15.10
2023-05-10T04:26:16.280Z,20.70
2023-05-10T04:28:09.739Z,16.30
2023-05-10T04:30:03.304Z,15.00
2023-05-10T04:31:57.684Z,19.40
2023-05-10T04:33:51.148Z,14.90
2023-05-10T04:35:43.987Z,17.00
2023-05-10T04:37:37.682Z,16.50
2023-05-10T04:39:30.496Z,17.30
2023-05-10T04:41:23.349Z,16.70
2023-05-10T04:43:16.188Z,18.20
2023-05-10T04:45:10.753Z,18.80
2023-05-10T04:47:04.247Z,18.70
2023-05-10T04:48:57.083Z,16.50
2023-05-10T04:50:49.929Z,16.70
2023-05-10T04:52:42.770Z,14.70
2023-05-10T04:54:35.927Z,17.70
2023-05-10T04:56:28.768Z,17.40
2023-05-10T04:58:22.027Z,17.90
2023-05-10T05:00:15.709Z,15.50
2023-05-10T05:02:08.967Z,16.80
2023-05-10T05:04:02.566Z,15.80
2023-05-10T05:05:55.455Z,15.50
2023-05-10T05:07:48.404Z,18.60
2023-05-10T05:09:41.258Z,17.30
2023-05-10T05:11:34.200Z,17.00
2023-05-10T05:13:27.214Z,16.90
2023-05-10T05:15:20.835Z,15.80
2023-05-10T05:17:14.280Z,19.10
2023-05-10T05:19:07.323Z,17.00
2023-05-10T05:21:00.381Z,18.50
2023-05-10T05:22:53.321Z,16.70
2023-05-10T05:24:46.227Z,17.30
2023-05-10T05:26:39.524Z,14.80
2023-05-10T05:28:35.140Z,17.40
2023-05-10T05:30:28.093Z,17.80
2023-05-10T05:32:20.968Z,15.70
2023-05-10T05:34:13.789Z,16.10
2023-05-10T05:36:07.320Z,17.10
2023-05-10T05:38:00.923Z,19.00
2023-05-10T05:39:55.492Z,15.10
2023-05-10T05:41:48.433Z,14.80
2023-05-10T05:43:41.287Z,15.70
2023-05-10T05:45:34.140Z,17.20
2023-05-10T05:47:27.091Z,16.70
2023-05-10T05:49:20.199Z,17.00
2023-05-10T05:51:13.077Z,20.10
2023-05-10T05:53:06.015Z,20.70
2023-05-10T05:54:58.867Z,20.20
2023-05-10T05:56:51.817Z,15.60
2023-05-10T05:58:45.891Z,14.90
2023-05-10T06:00:38.753Z,16.00
2023-05-10T06:02:31.818Z,16.40
2023-05-10T06:04:25.078Z,17.00
2023-05-10T06:06:17.997Z,16.00
2023-05-10T06:08:11.363Z,16.50
2023-05-10T06:10:04.822Z,17.40
2023-05-10T06:11:58.288Z,15.10
2023-05-10T06:13:52.095Z,15.20
2023-05-10T06:15:45.703Z,14.70
2023-05-10T06:17:40.736Z,14.00
2023-05-10T06:19:35.106Z,15.90
2023-05-10T06:21:28.458Z,17.70
2023-05-10T06:23:21.957Z,16.80
2023-05-10T06:25:16.159Z,17.60
2023-05-10T06:27:09.571Z,16.40
2023-05-10T06:29:02.586Z,14.70
2023-05-10T06:30:55.432Z,18.00
2023-05-10T06:32:48.344Z,15.30
2023-05-10T06:34:41.532Z,15.80
2023-05-10T06:36:34.990Z,16.10
2023-05-10T06:38:28.552Z,16.20
2023-05-10T06:40:21.890Z,19.30
2023-05-10T06:42:14.774Z,15.80
2023-05-10T06:44:11.911Z,16.10
2023-05-10T06:46:04.781Z,17.20
2023-05-10T06:48:00.884Z,14.70
2023-05-10T06:50:05.556Z,16.30
2023-05-10T06:51:58.549Z,17.20
2023-05-10T06:53:51.494Z,16.30
2023-05-10T06:55:44.845Z,15.50
2023-05-10T06:57:38.315Z,16.30
2023-05-10T06:59:31.454Z,16.60
2023-05-10T07:01:24.523Z,17.30
2023-05-10T07:03:17.745Z,18.40
2023-05-10T07:05:10.612Z,16.50
2023-05-10T07:07:03.752Z,18.00
2023-05-10T07:08:56.641Z,16.30
2023-05-10T07:10:49.899Z,19.10
2023-05-10T07:12:43.298Z,16.00
2023-05-10T07:14:36.689Z,17.90
2023-05-10T07:16:29.817Z,17.50
2023-05-10T07:18:22.851Z,17.20
2023-05-10T07:20:16.153Z,16.40
2023-05-10T07:22:09.023Z,15.20
2023-05-10T07:24:02.656Z,20.30
2023-05-10T07:25:55.718Z,17.60
2023-05-10T07:27:49.759Z,15.80
2023-05-10T07:29:43.272Z,18.20
2023-05-10T07:31:36.213Z,18.00
2023-05-10T07:33:29.147Z,15.40
2023-05-10T07:35:21.984Z,17.70
2023-05-10T07:37:14.794Z,18.10
2023-05-10T07:39:08.185Z,21.40
2023-05-10T07:41:01.010Z,17.90
2023-05-10T07:42:54.014Z,16.80
2023-05-10T07:44:46.843Z,16.00
2023-05-10T07:46:39.929Z,16.30
2023-05-10T07:48:32.871Z,18.60
2023-05-10T07:50:25.666Z,16.10
2023-05-10T07:52:20.615Z,17.60
2023-05-10T07:54:15.355Z,15.60
2023-05-10T07:56:30.927Z,15.60
2023-05-10T07:58:23.878Z,19.50
2023-05-10T08:00:19.506Z,17.10
2023-05-10T08:02:12.317Z,17.80
2023-05-10T08:04:05.470Z,16.60
2023-05-10T08:05:58.435Z,18.40
2023-05-10T08:07:51.284Z,16.20
2023-05-10T08:09:44.229Z,19.20
2023-05-10T08:11:37.079Z,18.60
2023-05-10T08:13:29.933Z,19.70
2023-05-10T08:15:22.871Z,16.70
2023-05-10T08:17:15.732Z,18.40
2023-05-10T08:19:08.525Z,16.30
2023-05-10T08:21:02.103Z,20.60
2023-05-10T08:22:55.072Z,19.00
2023-05-10T08:24:47.895Z,14.20
2023-05-10T08:26:41.092Z,19.70
2023-05-10T08:28:34.019Z,15.90
2023-05-10T08:30:27.068Z,22.60
2023-05-10T08:32:19.916Z,18.60
2023-05-10T08:34:12.763Z,18.60
2023-05-10T08:36:05.707Z,18.50
2023-05-10T08:37:58.657Z,20.80
2023-05-10T08:39:51.507Z,15.50
2023-05-10T08:41:46.302Z,14.90
2023-05-10T08:43:40.104Z,13.40
2023-05-10T08:45:34.588Z,17.10
2023-05-10T08:47:28.995Z,15.30
2023-05-10T08:49:22.801Z,17.50
2023-05-10T08:51:18.969Z,16.40
2023-05-10T08:53:14.187Z,17.00
2023-05-10T08:55:07.385Z,16.10
2023-05-10T08:57:00.634Z,14.30
2023-05-10T08:58:53.678Z,15.80
2023-05-10T09:00:46.962Z,16.10
2023-05-10T09:02:40.412Z,16.20
2023-05-10T09:04:33.948Z,15.60
2023-05-10T09:06:27.486Z,15.20
2023-05-10T09:08:21.293Z,16.50
2023-05-10T09:10:14.651Z,16.30
2023-05-10T09:12:12.001Z,15.10
2023-05-10T09:14:05.565Z,14.50
2023-05-10T09:16:06.985Z,17.90
2023-05-10T09:18:06.795Z,14.90
2023-05-10T09:20:01.255Z,13.10
2023-05-10T09:21:54.151Z,14.20
2023-05-10T09:23:48.622Z,15.90
2023-05-10T09:25:44.861Z,17.90
2023-05-10T09:27:39.833Z,14.80
2023-05-10T09:29:44.714Z,18.20
2023-05-10T09:31:52.570Z,18.30
2023-05-10T09:33:50.564Z,15.00
2023-05-10T09:37:37.274Z,14.10
2023-05-10T09:39:35.019Z,19.00
2023-05-10T09:41:29.215Z,12.60
2023-05-10T09:43:22.251Z,15.30
2023-05-10T09:45:15.414Z,15.00
2023-05-10T09:47:08.780Z,13.80
2023-05-10T09:49:01.617Z,16.40
2023-05-10T09:50:58.549Z,15.40
2023-05-10T09:53:01.124Z,12.00
2023-05-10T09:54:55.040Z,15.90
2023-05-10T09:56:48.015Z,14.20
2023-05-10T09:58:41.501Z,10.70
2023-05-10T10:00:39.176Z,15.20
2023-05-10T10:02:32.980Z,13.10
2023-05-10T10:04:26.777Z,12.10
2023-05-10T10:06:29.639Z,12.20
2023-05-10T10:08:23.472Z,12.20
2023-05-10T10:10:16.818Z,9.20
2023-05-10T10:12:09.709Z,12.70
2023-05-10T10:14:03.259Z,11.20
2023-05-10T10:15:56.362Z,15.80
2023-05-10T10:17:50.762Z,11.30
2023-05-10T10:19:44.824Z,11.80
2023-05-10T10:21:37.703Z,14.90
2023-05-10T10:23:30.485Z,12.10
2023-05-10T10:25:26.603Z,14.60
2023-05-10T10:27:29.667Z,11.40
2023-05-10T10:29:37.519Z,13.10
2023-05-10T10:31:46.289Z,11.50
2023-05-10T10:33:48.475Z,12.10
2023-05-10T10:35:41.861Z,12.90
2023-05-10T10:37:46.433Z,12.10
2023-05-10T10:39:39.297Z,11.70
2023-05-10T10:41:35.588Z,10.90
2023-05-10T10:43:29.637Z,11.80
2023-05-10T10:45:23.558Z,12.20
2023-05-10T10:47:26.029Z,11.10
2023-05-10T10:49:19.225Z,12.50
2023-05-10T10:51:20.721Z,17.50
2023-05-10T10:53:16.618Z,11.80
2023-05-10T10:55:20.831Z,14.50
2023-05-10T10:57:15.515Z,11.30
2023-05-10T10:59:09.976Z,13.50
2023-05-10T11:01:12.162Z,14.00
2023-05-10T11:03:07.854Z,12.50
2023-05-10T11:05:01.922Z,12.50
2023-05-10T11:07:18.636Z,11.80
2023-05-10T11:09:13.508Z,13.10
2023-05-10T11:11:13.287Z,13.00
2023-05-10T11:13:08.026Z,16.40
2023-05-10T11:15:00.868Z,20.20
2023-05-10T11:16:53.914Z,13.10
2023-05-10T11:19:08.628Z,12.70
2023-05-10T11:21:06.295Z,16.10
2023-05-10T11:22:59.084Z,16.90
2023-05-10T11:24:59.620Z,14.60
2023-05-10T11:26:53.084Z,15.40
2023-05-10T11:28:48.210Z,14.90
2023-05-10T11:30:44.185Z,22.50
2023-05-10T11:32:40.765Z,16.50
2023-05-10T11:34:36.581Z,17.50
2023-05-10T11:36:33.739Z,12.80
2023-05-10T11:38:26.745Z,11.20
2023-05-10T11:40:20.252Z,13.60
2023-05-10T11:42:16.111Z,16.20
2023-05-10T11:44:10.597Z,15.70
2023-05-10T11:46:04.141Z,17.60
2023-05-10T11:47:59.001Z,14.60
2023-05-10T11:49:52.812Z,17.00
2023-05-10T11:51:45.774Z,11.50
2023-05-10T11:53:39.353Z,14.70
2023-05-10T11:55:34.698Z,15.00
2023-05-10T11:57:29.604Z,14.60
2023-05-10T11:59:22.412Z,16.00
2023-05-10T12:01:15.350Z,17.00
2023-05-10T12:03:08.389Z,15.10
2023-05-10T12:05:01.587Z,14.20
2023-05-10T12:06:54.671Z,19.30
2023-05-10T12:08:49.359Z,15.80
2023-05-10T12:10:42.632Z,13.50
2023-05-10T12:12:45.569Z,15.70
2023-05-10T12:14:38.394Z,14.20
2023-05-10T12:16:31.589Z,11.30
2023-05-10T12:18:26.455Z,14.90
2023-05-10T12:20:23.497Z,14.50
2023-05-10T12:22:16.375Z,11.30
2023-05-10T12:24:09.341Z,11.70
2023-05-10T12:26:06.475Z,13.80
2023-05-10T12:30:11.465Z,13.60
2023-05-10T12:32:04.520Z,14.20
2023-05-10T12:33:57.635Z,13.50
2023-05-10T12:35:53.176Z,14.60
2023-05-10T12:37:46.299Z,18.80
2023-05-10T12:39:44.070Z,12.70
2023-05-10T12:41:36.909Z,14.40
2023-05-10T12:43:30.610Z,12.40
2023-05-10T12:45:23.774Z,13.10
2023-05-10T12:47:16.784Z,16.40
2023-05-10T12:49:10.106Z,13.80
2023-05-10T12:51:04.611Z,17.60
2023-05-10T12:52:57.496Z,14.40
2023-05-10T12:54:50.517Z,12.50
2023-05-10T12:56:44.583Z,15.40
2023-05-10T12:58:37.424Z,16.20
2023-05-10T13:00:30.263Z,15.00
2023-05-10T13:02:24.219Z,15.00
2023-05-10T13:04:17.846Z,12.70
2023-05-10T13:06:11.066Z,13.10
2023-05-10T13:08:04.019Z,15.00
2023-05-10T13:09:56.859Z,13.10
2023-05-10T13:11:50.320Z,13.10
2023-05-10T13:13:43.164Z,14.70
2023-05-10T13:15:36.315Z,11.80
2023-05-10T13:17:30.357Z,12.10
2023-05-10T13:19:24.069Z,16.60
2023-05-10T13:21:17.830Z,15.70
2023-05-10T13:23:11.181Z,15.60
2023-05-10T13:25:04.334Z,15.00
2023-05-10T13:26:57.287Z,15.90
2023-05-10T13:28:50.946Z,13.40
2023-05-10T13:30:43.997Z,14.00
2023-05-10T13:32:37.287Z,13.40
2023-05-10T13:34:30.302Z,13.50
2023-05-10T13:36:23.984Z,13.80
2023-05-10T13:38:17.577Z,12.20
2023-05-10T13:40:12.761Z,14.00
2023-05-10T13:42:07.304Z,12.90
2023-05-10T13:44:05.799Z,15.20
2023-05-10T13:45:58.771Z,15.00
2023-05-10T13:47:53.319Z,15.10
2023-05-10T13:49:46.254Z,14.50
2023-05-10T13:51:39.156Z,13.90
2023-05-10T13:53:32.281Z,14.40
2023-05-10T13:56:21.030Z,14.20
2023-05-10T13:59:05.049Z,13.80
2023-05-10T14:00:58.207Z,17.10
2023-05-10T14:02:51.460Z,15.30
2023-05-10T14:04:44.763Z,14.20
2023-05-10T14:06:38.104Z,11.50
2023-05-10T14:08:31.268Z,12.60
2023-05-10T14:10:24.308Z,14.10
2023-05-10T14:12:17.907Z,13.50
2023-05-10T14:14:11.337Z,15.50
2023-05-10T14:16:04.495Z,14.50
2023-05-10T14:17:57.371Z,12.60
2023-05-10T14:19:50.393Z,13.80
2023-05-10T14:21:44.250Z,14.90
2023-05-10T14:23:37.199Z,14.70
2023-05-10T14:25:30.253Z,13.90
2023-05-10T14:27:23.230Z,16.40
2023-05-10T14:29:16.249Z,15.30
2023-05-10T14:31:09.097Z,14.80
2023-05-10T14:33:04.135Z,14.60
2023-05-10T14:34:57.161Z,15.90
2023-05-10T14:36:51.111Z,15.10
2023-05-10T14:38:44.266Z,11.80
2023-05-10T14:40:37.417Z,14.50
2023-05-10T14:42:30.384Z,13.00
2023-05-10T14:44:23.415Z,14.30
2023-05-10T14:46:17.141Z,17.30
2023-05-10T14:48:13.304Z,16.50
2023-05-10T14:50:07.130Z,14.40
2023-05-10T14:52:00.239Z,15.30
2023-05-10T14:54:49.393Z,15.60
2023-05-10T14:57:01.802Z,14.90
2023-05-10T14:58:55.187Z,13.30
2023-05-10T15:00:48.816Z,12.60
2023-05-10T15:02:42.614Z,13.10
2023-05-10T15:04:37.213Z,14.40
2023-05-10T15:06:35.668Z,13.70
2023-05-10T15:08:32.190Z,15.20
2023-05-10T15:10:28.501Z,15.20
2023-05-10T15:12:21.556Z,12.80
2023-05-10T15:14:14.398Z,16.90
2023-05-10T15:16:07.373Z,14.90
2023-05-10T15:18:00.355Z,18.50
2023-05-10T15:19:53.516Z,13.70
2023-05-10T15:21:47.120Z,17.00
2023-05-10T15:23:39.993Z,16.90
2023-05-10T15:25:36.017Z,12.80
2023-05-10T15:27:29.034Z,15.00
2023-05-10T15:29:22.088Z,13.80
2023-05-10T15:31:14.975Z,13.90
2023-05-10T15:33:08.952Z,14.00
2023-05-10T15:35:02.361Z,17.40
2023-05-10T15:36:55.508Z,12.90
2023-05-10T15:38:48.564Z,15.10
2023-05-10T15:40:41.615Z,13.80
2023-05-10T15:42:34.802Z,14.30
2023-05-10T15:44:27.921Z,13.40
2023-05-10T15:46:20.909Z,15.30
2023-05-10T15:48:13.970Z,15.30
2023-05-10T15:50:08.522Z,13.60
2023-05-10T15:52:01.450Z,13.10
2023-05-10T15:54:05.973Z,14.30
2023-05-10T15:56:00.466Z,13.50
2023-05-10T15:57:53.402Z,13.00
2023-05-10T15:59:46.349Z,12.80
2023-05-10T16:01:39.311Z,12.90
2023-05-10T16:03:36.003Z,13.90
2023-05-10T16:07:26.855Z,14.90
2023-05-10T16:09:19.906Z,12.80
2023-05-10T16:11:12.927Z,14.70
2023-05-10T16:13:05.911Z,14.40
2023-05-10T16:14:58.846Z,14.80
2023-05-10T16:16:52.464Z,12.50
2023-05-10T16:18:45.859Z,16.20
2023-05-10T16:20:39.024Z,13.10
2023-05-10T16:22:31.873Z,13.30
2023-05-10T16:24:26.550Z,13.50
2023-05-10T16:26:19.406Z,12.60
2023-05-10T16:28:12.248Z,17.90
2023-05-10T16:30:06.018Z,19.60
2023-05-10T16:31:58.861Z,15.10
2023-05-10T16:33:51.733Z,12.80
2023-05-10T16:35:45.077Z,14.00
2023-05-10T16:37:39.612Z,14.80
2023-05-10T16:39:32.933Z,14.50
2023-05-10T16:41:26.533Z,12.70
2023-05-10T16:43:19.385Z,12.70
2023-05-10T16:45:12.597Z,16.70
2023-05-10T16:47:05.514Z,12.30
2023-05-10T16:48:59.891Z,12.90
2023-05-10T16:50:52.871Z,12.80
2023-05-10T16:52:45.662Z,14.80
2023-05-10T16:54:38.536Z,13.70
2023-05-10T16:56:31.556Z,14.90
2023-05-10T16:58:24.543Z,14.40
2023-05-10T17:00:17.801Z,13.20
2023-05-10T17:02:11.225Z,13.50
2023-05-10T17:04:04.612Z,13.10
2023-05-10T17:05:59.120Z,13.80
2023-05-10T17:07:52.043Z,15.30
2023-05-10T17:09:45.195Z,12.20
2023-05-10T17:11:38.044Z,13.90
2023-05-10T17:13:32.012Z,11.10
2023-05-10T17:15:24.862Z,13.90
2023-05-10T17:17:17.809Z,11.70
2023-05-10T17:19:10.702Z,13.90
2023-05-10T17:21:04.218Z,12.10
2023-05-10T17:22:57.142Z,14.80
2023-05-10T17:24:50.421Z,15.00
2023-05-10T17:26:43.474Z,12.70
2023-05-10T17:28:36.329Z,13.30
2023-05-10T17:30:32.653Z,12.80
2023-05-10T17:32:26.354Z,18.00
2023-05-10T17:34:19.325Z,14.50
2023-05-10T17:36:12.305Z,13.00
2023-05-10T17:38:05.163Z,16.00
2023-05-10T17:39:58.031Z,14.80
2023-05-10T17:41:50.845Z,13.40
2023-05-10T17:43:43.689Z,31.00
2023-05-10T17:45:36.629Z,21.10
2023-05-10T17:47:29.677Z,39.80
2023-05-10T17:49:22.635Z,24.50
2023-05-10T17:51:15.435Z,21.20
2023-05-10T17:53:08.431Z,24.00
2023-05-10T17:55:01.599Z,25.60
2023-05-10T17:56:54.528Z,23.60
2023-05-10T17:58:48.864Z,17.90
2023-05-10T18:00:43.492Z,20.50
2023-05-10T18:02:37.099Z,23.00
2023-05-10T18:04:30.264Z,19.60
2023-05-10T18:06:23.707Z,19.00
2023-05-10T18:08:22.414Z,19.30
2023-05-10T18:10:15.509Z,23.10
2023-05-10T18:12:08.285Z,33.30
2023-05-10T18:14:01.200Z,28.10
2023-05-10T18:15:54.349Z,32.90
2023-05-10T18:17:47.241Z,30.20
2023-05-10T18:19:40.578Z,27.70
2023-05-10T18:21:33.403Z,24.10
2023-05-10T18:23:26.554Z,20.50
2023-05-10T18:25:19.590Z,22.50
2023-05-10T18:27:12.668Z,23.40
2023-05-10T18:29:06.556Z,18.40
2023-05-10T18:30:59.703Z,16.00
2023-05-10T18:32:52.826Z,31.80
2023-05-10T18:34:45.996Z,40.20
2023-05-10T18:36:38.845Z,48.40
2023-05-10T18:38:31.679Z,45.00
2023-05-10T18:40:26.985Z,39.20
2023-05-10T18:42:20.744Z,31.30
2023-05-10T18:44:13.690Z,27.60
2023-05-10T18:46:06.780Z,19.30
2023-05-10T18:47:59.744Z,18.30
2023-05-10T18:49:52.919Z,15.70
2023-05-10T18:51:46.117Z,20.60
2023-05-10T18:53:38.952Z,18.10
2023-05-10T18:55:31.753Z,17.80
2023-05-10T18:57:24.638Z,16.10
2023-05-10T18:59:17.587Z,18.50
2023-05-10T19:01:10.563Z,17.50
2023-05-10T19:03:04.015Z,18.80
2023-05-10T19:04:59.750Z,15.80
2023-05-10T19:06:53.066Z,16.50
2023-05-10T19:08:45.887Z,15.60
2023-05-10T19:10:38.857Z,16.60
2023-05-10T19:12:31.726Z,14.60
2023-05-10T19:14:25.777Z,16.10
2023-05-10T19:16:18.894Z,16.10
2023-05-10T19:18:13.828Z,16.20
2023-05-10T19:20:08.105Z,16.30
2023-05-10T19:22:03.921Z,14.20
2023-05-10T19:23:59.228Z,16.10
2023-05-10T19:25:52.237Z,17.20
2023-05-10T19:27:45.227Z,18.00
2023-05-10T19:29:38.379Z,18.50
2023-05-10T19:31:32.124Z,18.20
2023-05-10T19:33:25.089Z,14.80
2023-05-10T19:35:18.569Z,15.40
2023-05-10T19:37:12.472Z,14.70
2023-05-10T19:39:05.472Z,13.90
2023-05-10T19:40:59.340Z,16.00
2023-05-10T19:42:52.391Z,16.00
2023-05-10T19:44:46.619Z,17.10
2023-05-10T19:46:39.690Z,15.40
2023-05-10T19:48:32.779Z,13.50
2023-05-10T19:50:26.336Z,17.70
2023-05-10T19:52:19.178Z,14.30
2023-05-10T19:54:12.022Z,15.80
2023-05-10T19:56:07.431Z,14.00
2023-05-10T19:58:03.153Z,18.00
2023-05-10T19:59:55.989Z,15.30
2023-05-10T20:01:48.833Z,14.10
2023-05-10T20:03:41.699Z,15.40
2023-05-10T20:05:34.633Z,13.80
2023-05-10T20:07:27.474Z,16.00
2023-05-10T20:09:20.726Z,17.00
2023-05-10T20:11:13.581Z,16.90
2023-05-10T20:13:06.424Z,15.90
2023-05-10T20:14:59.472Z,17.40
2023-05-10T20:16:52.587Z,20.90
2023-05-10T20:18:46.793Z,15.90
2023-05-10T20:20:39.916Z,18.70
2023-05-10T20:22:32.806Z,16.30
2023-05-10T20:24:25.606Z,16.90
2023-05-10T20:26:18.594Z,15.30
2023-05-10T20:28:13.285Z,16.50
2023-05-10T20:30:07.089Z,15.60
2023-05-10T20:32:02.920Z,14.60
2023-05-10T20:33:56.536Z,15.10
2023-05-10T20:35:51.434Z,17.30
2023-05-10T20:37:44.311Z,15.10
2023-05-10T20:39:37.424Z,18.30
2023-05-10T20:41:30.273Z,15.80
2023-05-10T20:43:23.114Z,16.20
2023-05-10T20:45:16.269Z,15.90
2023-05-10T20:47:09.217Z,14.30
2023-05-10T20:49:02.688Z,15.20
2023-05-10T20:50:55.829Z,14.50
2023-05-10T20:52:51.107Z,16.10
2023-05-10T20:54:43.984Z,14.60
2023-05-10T20:56:36.936Z,16.80
2023-05-10T20:58:29.776Z,17.30
2023-05-10T21:00:22.743Z,15.60
2023-05-10T21:02:15.562Z,14.70
2023-05-10T21:04:08.432Z,15.70
2023-05-10T21:06:01.621Z,11.60
2023-05-10T21:07:54.513Z,13.80
2023-05-10T21:09:47.374Z,12.70
2023-05-10T21:11:40.348Z,13.10
2023-05-10T21:13:33.365Z,12.50
2023-05-10T21:15:26.621Z,14.50
2023-05-10T21:17:20.198Z,15.30
2023-05-10T21:19:13.431Z,15.40
2023-05-10T21:21:06.380Z,16.80
2023-05-10T21:22:59.347Z,16.10
2023-05-10T21:24:52.590Z,13.70
2023-05-10T21:26:45.435Z,13.50
2023-05-10T21:28:40.085Z,14.80
2023-05-10T21:30:34.090Z,13.50
2023-05-10T21:32:28.207Z,13.80
2023-05-10T21:34:24.492Z,16.80
2023-05-10T21:36:17.435Z,18.50
2023-05-10T21:38:10.575Z,16.70
2023-05-10T21:40:04.908Z,16.50
2023-05-10T21:41:59.754Z,14.50
2023-05-10T21:43:52.656Z,17.00
2023-05-10T21:45:45.559Z,14.30
2023-05-10T21:47:38.634Z,15.70
2023-05-10T21:49:31.558Z,15.80
2023-05-10T21:51:24.414Z,17.20
2023-05-10T21:53:17.252Z,17.50
2023-05-10T21:55:10.507Z,18.70
2023-05-10T21:57:03.455Z,16.10
2023-05-10T21:58:56.403Z,15.20
2023-05-10T22:00:49.757Z,19.40
2023-05-10T22:02:42.837Z,15.30
2023-05-10T22:04:35.761Z,16.10
2023-05-10T22:06:28.707Z,17.10
2023-05-10T22:08:22.407Z,15.30
2023-05-10T22:10:16.238Z,19.00
2023-05-10T22:12:09.439Z,16.90
2023-05-10T22:14:02.342Z,15.30
2023-05-10T22:15:55.123Z,17.00
2023-05-10T22:17:48.213Z,19.30
2023-05-10T22:19:41.137Z,17.50
2023-05-10T22:21:33.932Z,17.60
2023-05-10T22:23:26.885Z,16.40
2023-05-10T22:25:19.724Z,18.20
2023-05-10T22:27:12.888Z,17.40
2023-05-10T22:29:05.931Z,15.90
2023-05-10T22:30:58.777Z,15.50
2023-05-10T22:32:51.687Z,19.00
2023-05-10T22:34:44.570Z,13.90
2023-05-10T22:36:37.824Z,16.00
2023-05-10T22:38:30.671Z,14.40
2023-05-10T22:40:23.635Z,19.10
2023-05-10T22:42:16.701Z,16.50
2023-05-10T22:44:09.619Z,14.70
2023-05-10T22:46:02.504Z,15.30
2023-05-10T22:47:55.524Z,15.60
2023-05-10T22:49:48.568Z,16.20
2023-05-10T22:51:41.510Z,15.40
2023-05-10T22:53:34.463Z,17.20
2023-05-10T22:55:27.580Z,16.10
2023-05-10T22:57:20.565Z,16.50
2023-05-10T22:59:13.503Z,15.50
2023-05-10T23:01:06.355Z,14.80
2023-05-10T23:02:59.342Z,15.30
2023-05-10T23:04:52.280Z,17.80
2023-05-10T23:06:46.018Z,14.00
2023-05-10T23:08:38.863Z,16.40
2023-05-10T23:10:31.815Z,14.50
2023-05-10T23:12:25.269Z,17.90
2023-05-10T23:14:18.114Z,17.20
2023-05-10T23:16:11.002Z,17.60
2023-05-10T23:18:05.969Z,16.80
2023-05-10T23:19:59.005Z,15.10
2023-05-10T23:21:51.879Z,17.00
2023-05-10T23:23:44.810Z,14.00
2023-05-10T23:25:38.157Z,19.10
2023-05-10T23:27:31.147Z,16.30
2023-05-10T23:29:26.360Z,15.40
2023-05-10T23:31:19.408Z,13.20
2023-05-10T23:33:14.556Z,15.10
2023-05-10T23:35:08.533Z,13.90
2023-05-10T23:37:01.483Z,14.70
2023-05-10T23:38:54.325Z,12.40
2023-05-10T23:40:50.986Z,13.20
2023-05-10T23:42:43.811Z,15.70
2023-05-10T23:44:36.660Z,14.20
2023-05-10T23:46:29.502Z,14.80
2023-05-10T23:48:22.554Z,16.70
2023-05-10T23:50:15.659Z,13.50
2023-05-10T23:52:08.960Z,13.40
2023-05-10T23:54:02.194Z,13.90
2023-05-10T23:55:54.961Z,14.10
2023-05-10T23:57:47.809Z,14.50
2023-05-10T23:59:40.572Z,15.20
